Time;durP1;ratioP1;P1;durP2;ratioP2;P2;SDS_P1;SDS_P2;PMS_P1;PMS_P2;Temp;Humidity;BMP_temperature;BMP_pressure;BME280_temperature;BME280_humidity;BME280_pressure;Samples;Min_cycle;Max_cycle;Signal;HPM_P1;HPM_P2
2022/03/26 00:00:49;;;;;;;39.07;17.63;;;6.90;99.90;;;;;;5001523;28;20440;-78
2022/03/26 00:03:17;;;;;;;38.00;17.27;;;6.90;99.90;;;;;;5000462;28;20722;-78
2022/03/26 00:05:44;;;;;;;39.40;17.20;;;6.80;99.90;;;;;;5002642;28;20255;-79
2022/03/26 00:08:13;;;;;;;38.23;16.97;;;6.80;99.90;;;;;;5002937;28;20224;-79
2022/03/26 00:10:40;;;;;;;43.33;17.37;;;6.80;99.90;;;;;;5004484;28;20385;-79
2022/03/26 00:13:07;;;;;;;40.37;19.27;;;6.70;99.90;;;;;;5004408;28;20207;-77
2022/03/26 00:15:34;;;;;;;38.30;17.07;;;6.70;99.90;;;;;;4990181;28;20681;-78
2022/03/26 00:18:01;;;;;;;43.43;17.03;;;6.60;99.90;;;;;;5006650;28;20630;-78
2022/03/26 00:20:28;;;;;;;37.60;17.27;;;6.60;99.90;;;;;;5000863;28;20345;-77
2022/03/26 00:22:55;;;;;;;39.73;18.67;;;6.60;99.90;;;;;;5003047;28;20311;-78
2022/03/26 00:25:22;;;;;;;40.63;17.23;;;6.60;99.90;;;;;;5000625;28;21307;-81
2022/03/26 00:27:50;;;;;;;42.43;17.90;;;6.50;99.90;;;;;;5004812;28;20224;-79
2022/03/26 00:30:17;;;;;;;35.80;16.87;;;6.50;99.90;;;;;;5003624;28;20256;-79
2022/03/26 00:32:43;;;;;;;39.80;17.63;;;6.50;99.90;;;;;;5006657;28;20250;-79
2022/03/26 00:35:10;;;;;;;38.47;16.80;;;6.50;99.90;;;;;;5009669;28;20235;-78
2022/03/26 00:37:38;;;;;;;41.90;17.67;;;6.40;99.90;;;;;;5006492;28;20244;-79
2022/03/26 00:40:06;;;;;;;41.93;17.90;;;6.40;99.90;;;;;;5001522;28;20559;-78
2022/03/26 00:42:34;;;;;;;35.67;16.53;;;6.30;99.90;;;;;;5002553;28;20205;-80
2022/03/26 00:45:01;;;;;;;35.60;16.63;;;6.30;99.90;;;;;;5002971;28;20239;-79
2022/03/26 00:47:28;;;;;;;36.70;17.70;;;6.20;99.90;;;;;;4989911;28;20242;-79
2022/03/26 00:49:55;;;;;;;41.57;17.07;;;6.20;99.90;;;;;;4995264;28;20681;-80
2022/03/26 00:52:22;;;;;;;40.73;17.23;;;6.10;99.90;;;;;;5004700;28;20228;-80
2022/03/26 00:54:49;;;;;;;33.33;16.03;;;6.10;99.90;;;;;;4999098;28;20210;-80
2022/03/26 00:57:16;;;;;;;38.63;16.50;;;6.10;99.90;;;;;;5006574;28;20238;-80
2022/03/26 00:59:44;;;;;;;35.67;16.10;;;6.00;99.90;;;;;;5001801;28;20225;-79
2022/03/26 01:02:11;;;;;;;38.57;17.00;;;6.00;99.90;;;;;;5002201;28;20305;-79
2022/03/26 01:04:38;;;;;;;37.67;15.83;;;5.90;99.90;;;;;;5000103;28;20256;-78
2022/03/26 01:07:06;;;;;;;37.57;15.97;;;5.90;99.90;;;;;;5004942;28;20317;-79
2022/03/26 01:09:33;;;;;;;37.87;17.17;;;5.80;99.90;;;;;;5002700;28;20294;-77
2022/03/26 01:12:00;;;;;;;46.83;17.97;;;5.70;99.90;;;;;;5003973;28;20314;-79
2022/03/26 01:14:27;;;;;;;40.73;17.80;;;5.70;99.90;;;;;;5005942;28;20217;-79
2022/03/26 01:16:53;;;;;;;44.40;18.13;;;5.70;99.90;;;;;;5000700;28;20325;-77
2022/03/26 01:19:20;;;;;;;39.17;17.27;;;5.60;99.90;;;;;;5016819;28;20282;-79
2022/03/26 01:21:47;;;;;;;45.20;17.83;;;5.60;99.90;;;;;;5001158;28;20218;-78
2022/03/26 01:24:14;;;;;;;39.80;17.30;;;5.60;99.90;;;;;;5001565;28;20267;-80
2022/03/26 01:26:41;;;;;;;38.47;17.80;;;5.60;99.90;;;;;;4998995;28;20802;-78
2022/03/26 01:29:09;;;;;;;44.23;17.40;;;5.60;99.90;;;;;;5008850;28;20210;-78
2022/03/26 01:31:37;;;;;;;38.97;16.50;;;5.60;99.90;;;;;;5006212;28;20321;-79
2022/03/26 01:34:04;;;;;;;39.93;17.00;;;5.60;99.90;;;;;;5002740;28;20584;-79
2022/03/26 01:36:31;;;;;;;36.83;17.00;;;5.50;99.90;;;;;;5004682;28;20327;-79
2022/03/26 01:38:58;;;;;;;38.50;16.60;;;5.50;99.90;;;;;;5008832;28;20291;-79
2022/03/26 01:41:25;;;;;;;40.03;17.57;;;5.50;99.90;;;;;;5004893;28;20322;-78
2022/03/26 01:43:52;;;;;;;43.87;17.80;;;5.50;99.90;;;;;;5007863;28;20295;-79
2022/03/26 01:46:20;;;;;;;42.13;17.37;;;5.50;99.90;;;;;;5002602;28;20282;-79
2022/03/26 01:48:49;;;;;;;41.33;17.87;;;5.50;99.90;;;;;;4988320;28;20287;-78
2022/03/26 01:51:15;;;;;;;42.40;17.10;;;5.50;99.90;;;;;;5006606;28;20737;-79
2022/03/26 01:53:45;;;;;;;42.33;17.63;;;5.50;99.90;;;;;;5003770;28;20242;-78
2022/03/26 01:56:15;;;;;;;38.07;16.17;;;5.40;99.90;;;;;;5007713;28;20274;-78
2022/03/26 01:58:43;;;;;;;41.27;17.87;;;5.40;99.90;;;;;;5005884;28;20216;-78
2022/03/26 02:01:11;;;;;;;42.67;17.67;;;5.40;99.90;;;;;;5003470;28;20217;-78
2022/03/26 02:03:38;;;;;;;43.27;17.67;;;5.40;99.90;;;;;;5003407;28;20667;-77
2022/03/26 02:06:05;;;;;;;40.50;16.73;;;5.30;99.90;;;;;;5002867;28;20237;-79
2022/03/26 02:08:32;;;;;;;47.00;18.73;;;5.30;99.90;;;;;;5004567;28;20604;-81
2022/03/26 02:10:58;;;;;;;40.50;16.87;;;5.30;99.90;;;;;;5006535;28;20300;-81
2022/03/26 02:13:26;;;;;;;41.33;17.33;;;5.30;99.90;;;;;;4994450;28;20234;-80
2022/03/26 02:15:52;;;;;;;41.73;17.83;;;5.20;99.90;;;;;;5002765;28;20805;-79
2022/03/26 02:18:19;;;;;;;45.40;17.87;;;5.20;99.90;;;;;;5020409;28;20215;-79
2022/03/26 02:20:47;;;;;;;44.60;17.97;;;5.20;99.90;;;;;;5008614;28;20556;-81
2022/03/26 02:23:14;;;;;;;39.07;17.10;;;5.20;99.90;;;;;;5004855;28;20204;-78
2022/03/26 02:25:41;;;;;;;39.33;17.90;;;5.10;99.90;;;;;;5005836;28;20223;-80
2022/03/26 02:28:09;;;;;;;40.73;17.83;;;5.10;99.90;;;;;;5003320;28;20215;-79
2022/03/26 02:30:35;;;;;;;40.87;18.10;;;5.10;99.90;;;;;;5006510;28;20302;-80
2022/03/26 02:33:02;;;;;;;39.30;17.10;;;5.10;99.90;;;;;;5004022;28;20219;-80
2022/03/26 02:35:29;;;;;;;36.70;16.63;;;5.10;99.90;;;;;;5003736;28;20740;-77
2022/03/26 02:37:56;;;;;;;47.63;19.27;;;5.10;99.90;;;;;;5004580;28;21024;-78
2022/03/26 02:40:23;;;;;;;46.73;17.73;;;5.00;99.90;;;;;;5003449;28;20335;-79
2022/03/26 02:42:50;;;;;;;44.93;18.73;;;5.00;99.90;;;;;;4991709;28;20222;-79
2022/03/26 02:45:16;;;;;;;53.30;20.67;;;4.90;99.90;;;;;;5009232;28;20310;-79
2022/03/26 02:47:43;;;;;;;43.87;18.90;;;4.90;99.90;;;;;;5009335;28;20740;-78
2022/03/26 02:50:10;;;;;;;42.70;19.13;;;4.90;99.90;;;;;;5001952;28;20291;-79
2022/03/26 02:52:37;;;;;;;43.20;17.43;;;4.90;99.90;;;;;;5004024;28;20357;-79
2022/03/26 02:55:07;;;;;;;41.10;17.50;;;4.80;99.90;;;;;;5003320;28;20323;-78
2022/03/26 02:57:34;;;;;;;47.27;18.50;;;4.80;99.90;;;;;;5009085;28;20312;-78
2022/03/26 03:00:01;;;;;;;49.70;20.47;;;4.80;99.90;;;;;;5007968;28;20217;-78
2022/03/26 03:02:27;;;;;;;47.77;18.70;;;4.80;99.90;;;;;;5006493;28;20700;-79
2022/03/26 03:04:54;;;;;;;52.40;19.73;;;4.80;99.90;;;;;;5001441;28;20248;-79
2022/03/26 03:07:21;;;;;;;57.23;22.47;;;4.70;99.90;;;;;;5010385;28;20363;-78
2022/03/26 03:09:48;;;;;;;51.10;20.03;;;4.70;99.90;;;;;;5003525;28;20246;-79
2022/03/26 03:12:15;;;;;;;48.20;20.80;;;4.80;99.90;;;;;;5005811;28;20213;-78
2022/03/26 03:14:41;;;;;;;51.63;19.47;;;4.80;99.90;;;;;;5002677;28;20213;-78
2022/03/26 03:17:08;;;;;;;44.33;18.47;;;4.80;99.90;;;;;;5001674;28;20231;-79
2022/03/26 03:19:35;;;;;;;43.23;19.20;;;4.80;99.90;;;;;;5006107;28;20227;-79
2022/03/26 03:22:03;;;;;;;51.93;20.87;;;4.70;99.90;;;;;;5003833;28;20211;-80
2022/03/26 03:24:30;;;;;;;49.93;19.90;;;4.70;99.90;;;;;;4990233;28;20301;-78
2022/03/26 03:26:57;;;;;;;41.67;18.77;;;4.70;99.90;;;;;;4998746;28;20239;-78
2022/03/26 03:29:23;;;;;;;59.60;21.10;;;4.70;99.90;;;;;;4983236;28;20632;-79
2022/03/26 03:31:50;;;;;;;51.80;20.50;;;4.70;99.90;;;;;;5004905;28;20253;-79
2022/03/26 03:34:17;;;;;;;54.80;21.53;;;4.60;99.90;;;;;;4986992;28;20215;-80
2022/03/26 03:36:44;;;;;;;54.77;19.97;;;4.60;99.90;;;;;;5004186;28;20322;-80
2022/03/26 03:39:11;;;;;;;58.17;22.50;;;4.60;99.90;;;;;;5003650;28;20233;-79
2022/03/26 03:41:38;;;;;;;55.53;20.60;;;4.60;99.90;;;;;;4997461;28;20238;-79
2022/03/26 03:44:06;;;;;;;56.90;22.60;;;4.60;99.90;;;;;;5004692;28;20282;-79
2022/03/26 03:46:34;;;;;;;54.90;20.87;;;4.60;99.90;;;;;;5003985;28;20239;-79
2022/03/26 03:49:03;;;;;;;57.80;22.40;;;4.50;99.90;;;;;;5001360;28;20215;-78
2022/03/26 03:51:30;;;;;;;58.83;21.97;;;4.50;99.90;;;;;;5004007;28;20238;-79
2022/03/26 03:53:56;;;;;;;51.10;20.77;;;4.50;99.90;;;;;;5001689;28;20218;-80
2022/03/26 03:56:23;;;;;;;57.27;22.83;;;4.50;99.90;;;;;;5006060;28;20531;-79
2022/03/26 03:58:50;;;;;;;55.33;20.80;;;4.50;99.90;;;;;;5002279;28;20223;-79
2022/03/26 04:01:17;;;;;;;59.60;23.67;;;4.40;99.90;;;;;;5001727;28;20268;-80
2022/03/26 04:03:44;;;;;;;52.83;21.13;;;4.40;99.90;;;;;;5001678;28;20242;-79
2022/03/26 04:06:10;;;;;;;52.20;21.87;;;4.40;99.90;;;;;;5005522;28;20325;-78
2022/03/26 04:08:37;;;;;;;54.87;20.87;;;4.30;99.90;;;;;;5006952;28;20298;-79
2022/03/26 04:11:04;;;;;;;56.90;22.33;;;4.30;99.90;;;;;;5005538;28;20213;-79
2022/03/26 04:13:31;;;;;;;60.03;23.47;;;4.30;99.90;;;;;;5003460;28;20674;-79
2022/03/26 04:15:58;;;;;;;58.47;24.83;;;4.30;99.90;;;;;;5002441;28;20215;-80
2022/03/26 04:18:25;;;;;;;57.87;22.10;;;4.20;99.90;;;;;;5005552;28;20243;-80
2022/03/26 04:20:53;;;;;;;62.43;22.03;;;4.20;99.90;;;;;;5001778;28;20214;-81
2022/03/26 04:23:20;;;;;;;55.87;21.83;;;4.20;99.90;;;;;;4990215;28;20207;-78
2022/03/26 04:25:47;;;;;;;64.00;24.10;;;4.20;99.90;;;;;;5001543;28;20211;-79
2022/03/26 04:28:14;;;;;;;70.13;25.73;;;4.20;99.90;;;;;;5007732;28;20235;-80
2022/03/26 04:30:41;;;;;;;69.13;26.03;;;4.10;99.90;;;;;;4993921;28;20253;-78
2022/03/26 04:33:08;;;;;;;62.90;23.43;;;4.20;99.90;;;;;;5009237;28;20213;-80
2022/03/26 04:35:35;;;;;;;67.80;24.73;;;4.10;99.90;;;;;;5011544;28;20230;-79
2022/03/26 04:38:03;;;;;;;72.47;25.50;;;4.10;99.90;;;;;;5007449;28;20643;-80
2022/03/26 04:40:29;;;;;;;66.97;24.87;;;4.10;99.90;;;;;;5009392;28;20679;-79
2022/03/26 04:42:57;;;;;;;65.80;24.10;;;4.10;99.90;;;;;;4999584;28;20307;-79
2022/03/26 04:45:23;;;;;;;61.83;23.13;;;4.20;99.90;;;;;;5000549;28;20678;-80
2022/03/26 04:47:50;;;;;;;58.00;23.87;;;4.10;99.90;;;;;;4991392;28;20226;-78
2022/03/26 04:50:17;;;;;;;62.30;24.40;;;4.10;99.90;;;;;;5005209;28;20676;-78
2022/03/26 04:52:44;;;;;;;59.87;23.83;;;4.10;99.90;;;;;;5005873;28;20254;-80
2022/03/26 04:55:12;;;;;;;67.53;25.63;;;4.10;99.90;;;;;;4998167;28;20289;-78
2022/03/26 04:57:40;;;;;;;71.43;25.63;;;4.00;99.90;;;;;;5004776;28;20246;-79
2022/03/26 05:00:09;;;;;;;59.27;24.80;;;4.00;99.90;;;;;;4983000;28;20214;-79
2022/03/26 05:02:39;;;;;;;60.67;24.40;;;4.00;99.90;;;;;;5003222;28;20220;-78
2022/03/26 05:05:07;;;;;;;67.90;24.70;;;4.00;99.90;;;;;;5007749;28;20217;-78
2022/03/26 05:07:46;;;;;;;66.27;27.43;;;4.00;99.90;;;;;;5010989;28;20674;-79
2022/03/26 05:10:19;;;;;;;74.87;25.20;;;4.00;99.90;;;;;;5009644;28;20267;-78
2022/03/26 05:12:47;;;;;;;72.87;25.53;;;3.90;99.90;;;;;;4998527;28;20264;-78
2022/03/26 05:15:15;;;;;;;67.57;25.73;;;3.90;99.90;;;;;;5000776;28;20257;-77
2022/03/26 05:17:42;;;;;;;71.73;25.30;;;3.90;99.90;;;;;;5003791;28;20688;-78
2022/03/26 05:20:11;;;;;;;59.07;23.57;;;3.90;99.90;;;;;;5009659;28;20308;-79
2022/03/26 05:22:40;;;;;;;67.37;25.23;;;3.90;99.90;;;;;;4991103;28;20257;-78
2022/03/26 05:25:07;;;;;;;66.60;25.00;;;3.90;99.90;;;;;;5000169;28;20219;-79
2022/03/26 05:27:35;;;;;;;58.57;23.93;;;3.90;99.90;;;;;;5023801;28;20264;-79
2022/03/26 05:30:05;;;;;;;65.03;25.43;;;3.90;99.90;;;;;;5012061;28;20670;-79
2022/03/26 05:32:32;;;;;;;62.73;23.90;;;3.90;99.90;;;;;;5002101;28;20302;-79
2022/03/26 05:34:59;;;;;;;62.10;24.37;;;3.80;99.90;;;;;;5004262;28;20266;-78
2022/03/26 05:37:26;;;;;;;66.60;26.13;;;3.90;99.90;;;;;;4998962;28;20238;-79
2022/03/26 05:39:52;;;;;;;66.73;24.40;;;3.90;99.90;;;;;;5004357;28;20514;-79
2022/03/26 05:42:19;;;;;;;62.63;24.60;;;3.90;99.90;;;;;;5000895;28;20322;-78
2022/03/26 05:44:46;;;;;;;66.20;24.57;;;3.90;99.90;;;;;;5003066;28;20206;-77
2022/03/26 05:47:12;;;;;;;68.43;24.50;;;3.90;99.90;;;;;;5004954;28;20270;-79
2022/03/26 05:49:39;;;;;;;58.40;23.43;;;3.90;99.90;;;;;;5002855;28;20207;-78
2022/03/26 05:52:06;;;;;;;75.57;26.73;;;3.90;99.90;;;;;;5006482;28;20241;-79
2022/03/26 05:54:33;;;;;;;63.20;25.50;;;4.00;99.90;;;;;;5001029;28;20688;-80
2022/03/26 05:57:00;;;;;;;61.87;24.57;;;4.00;99.90;;;;;;5007334;28;20301;-79
2022/03/26 05:59:28;;;;;;;69.60;24.63;;;4.00;99.90;;;;;;5001779;28;20302;-77
2022/03/26 06:01:55;;;;;;;60.43;24.17;;;4.10;99.90;;;;;;5003280;28;20223;-78
2022/03/26 06:04:27;;;;;;;64.50;25.07;;;4.10;99.90;;;;;;5002373;28;20400;-78
2022/03/26 06:06:53;;;;;;;65.00;24.27;;;4.20;99.90;;;;;;5009870;28;20226;-78
2022/03/26 06:09:21;;;;;;;66.70;25.73;;;4.20;99.90;;;;;;5009476;28;20783;-80
2022/03/26 06:11:48;;;;;;;61.60;24.87;;;4.30;99.90;;;;;;5008523;28;20215;-79
2022/03/26 06:14:17;;;;;;;65.93;25.30;;;4.30;99.90;;;;;;5002382;28;20230;-78
2022/03/26 06:16:45;;;;;;;69.20;24.47;;;4.40;99.90;;;;;;5005442;28;20282;-81
2022/03/26 06:19:15;;;;;;;65.70;25.67;;;4.40;99.90;;;;;;5007476;28;20206;-79
2022/03/26 06:21:42;;;;;;;69.83;26.40;;;4.40;99.90;;;;;;5003373;28;20660;-79
2022/03/26 06:24:10;;;;;;;77.97;27.60;;;4.60;99.90;;;;;;5004544;28;20585;-79
2022/03/26 06:26:39;;;;;;;70.00;26.90;;;4.60;99.90;;;;;;5007592;28;20208;-79
2022/03/26 06:29:06;;;;;;;70.30;26.87;;;4.70;99.90;;;;;;5004408;28;20214;-78
2022/03/26 06:31:32;;;;;;;66.60;26.33;;;4.70;99.90;;;;;;5007539;28;20814;-80
2022/03/26 06:34:00;;;;;;;71.03;25.10;;;4.80;99.90;;;;;;5004081;28;20691;-79
2022/03/26 06:36:27;;;;;;;67.07;26.20;;;4.90;99.90;;;;;;5007392;28;20322;-79
2022/03/26 06:38:54;;;;;;;76.83;29.13;;;5.00;99.90;;;;;;5004718;28;20212;-79
2022/03/26 06:41:20;;;;;;;73.93;28.23;;;5.00;99.90;;;;;;5007265;28;20301;-78
2022/03/26 06:43:47;;;;;;;80.33;27.47;;;5.10;99.90;;;;;;5005534;28;20263;-79
2022/03/26 06:46:14;;;;;;;78.97;28.87;;;5.20;99.90;;;;;;5002991;28;20231;-79
2022/03/26 06:48:41;;;;;;;75.90;28.80;;;5.20;99.90;;;;;;5009092;28;20222;-79
2022/03/26 06:51:08;;;;;;;73.07;28.60;;;5.30;99.90;;;;;;5008853;28;20288;-79
2022/03/26 06:53:35;;;;;;;71.07;28.17;;;5.40;99.90;;;;;;5007980;28;20207;-79
2022/03/26 06:56:04;;;;;;;74.37;27.10;;;5.50;99.90;;;;;;5001156;28;20214;-78
2022/03/26 06:58:31;;;;;;;90.20;30.27;;;5.50;99.90;;;;;;4992277;28;20333;-79
2022/03/26 07:01:01;;;;;;;75.33;28.30;;;5.80;99.90;;;;;;5002941;28;20222;-78
2022/03/26 07:03:28;;;;;;;63.20;25.80;;;6.60;99.90;;;;;;5008801;28;20301;-80
2022/03/26 07:05:56;;;;;;;68.37;27.27;;;7.70;99.90;;;;;;5005075;28;20308;-79
2022/03/26 07:08:23;;;;;;;62.03;26.17;;;8.90;99.90;;;;;;5001445;28;20581;-82
2022/03/26 07:10:49;;;;;;;66.17;27.40;;;10.00;99.90;;;;;;5006270;28;20274;-80
2022/03/26 07:13:16;;;;;;;55.17;25.23;;;11.10;99.90;;;;;;5004905;28;20686;-80
2022/03/26 07:15:43;;;;;;;62.17;26.83;;;12.10;99.90;;;;;;5004111;28;20347;-81
2022/03/26 07:18:11;;;;;;;65.13;26.63;;;13.80;99.90;;;;;;5009471;28;20213;-81
2022/03/26 07:20:39;;;;;;;57.70;26.47;;;13.80;99.90;;;;;;5004397;28;20221;-81
2022/03/26 07:23:06;;;;;;;59.73;26.60;;;14.50;99.90;;;;;;5006924;28;20229;-81
2022/03/26 07:25:33;;;;;;;63.87;28.13;;;15.10;99.90;;;;;;5006026;28;20317;-82
2022/03/26 07:28:00;;;;;;;58.13;27.77;;;15.50;99.90;;;;;;4991425;28;20292;-82
2022/03/26 07:30:27;;;;;;;65.07;27.98;;;16.30;99.90;;;;;;5007253;28;20219;-81
2022/03/26 07:32:54;;;;;;;66.45;28.40;;;16.40;99.90;;;;;;4990562;28;20203;-82
2022/03/26 07:35:21;;;;;;;58.55;29.05;;;16.60;99.90;;;;;;5005300;28;20266;-81
2022/03/26 07:37:48;;;;;;;63.95;29.17;;;17.00;99.90;;;;;;5001213;28;20249;-81
2022/03/26 07:40:15;;;;;;;61.05;29.85;;;17.50;99.90;;;;;;5003759;28;20210;-82
2022/03/26 07:42:41;;;;;;;63.70;30.25;;;17.40;99.90;;;;;;4990127;28;20206;-81
2022/03/26 07:45:08;;;;;;;62.75;29.20;;;18.10;99.90;;;;;;5001802;28;20202;-81
2022/03/26 07:47:36;;;;;;;62.05;31.95;;;18.60;99.90;;;;;;4994141;28;20370;-81
2022/03/26 07:50:05;;;;;;;66.95;29.90;;;18.70;99.50;;;;;;5005789;28;20261;-80
2022/03/26 07:52:32;;;;;;;68.30;31.33;;;18.60;98.90;;;;;;5009948;28;20217;-81
2022/03/26 07:54:59;;;;;;;59.75;29.55;;;18.70;98.70;;;;;;5004264;28;20297;-81
2022/03/26 07:57:27;;;;;;;64.90;31.20;;;19.00;98.00;;;;;;5002593;28;20261;-83
2022/03/26 07:59:54;;;;;;;65.35;30.85;;;19.20;96.90;;;;;;4997759;28;20214;-82
2022/03/26 08:02:21;;;;;;;62.47;31.35;;;19.30;96.50;;;;;;5013460;28;20210;-82
2022/03/26 08:04:48;;;;;;;61.28;31.48;;;19.30;95.80;;;;;;5005639;28;20324;-83
2022/03/26 08:07:15;;;;;;;61.95;32.20;;;19.40;95.90;;;;;;5008964;28;20195;-82
2022/03/26 08:09:42;;;;;;;66.95;32.88;;;19.50;94.60;;;;;;5001046;28;20221;-82
2022/03/26 08:12:10;;;;;;;62.55;31.75;;;19.50;94.90;;;;;;5002497;28;20594;-82
2022/03/26 08:14:36;;;;;;;66.30;32.35;;;19.70;94.20;;;;;;5004244;28;20214;-81
2022/03/26 08:17:03;;;;;;;68.20;32.38;;;19.70;93.30;;;;;;5002530;28;20341;-81
2022/03/26 08:19:34;;;;;;;67.35;31.80;;;19.80;93.40;;;;;;5004639;28;20957;-81
2022/03/26 08:22:02;;;;;;;70.60;32.85;;;19.80;93.30;;;;;;5003116;28;20206;-82
2022/03/26 08:24:29;;;;;;;62.08;32.83;;;19.90;92.90;;;;;;5004377;28;20209;-81
2022/03/26 08:26:56;;;;;;;73.97;33.55;;;19.90;92.60;;;;;;5003472;28;20568;-82
2022/03/26 08:29:23;;;;;;;68.07;33.22;;;19.90;92.40;;;;;;5005495;28;20257;-82
2022/03/26 08:31:51;;;;;;;65.00;31.45;;;19.90;91.90;;;;;;5003817;28;20221;-81
2022/03/26 08:34:18;;;;;;;71.03;34.03;;;19.80;91.90;;;;;;5006110;28;20217;-82
2022/03/26 08:36:45;;;;;;;75.57;34.90;;;19.70;91.80;;;;;;4984103;28;20722;-81
2022/03/26 08:39:12;;;;;;;76.60;34.95;;;19.70;91.80;;;;;;5005785;28;20321;-82
2022/03/26 08:41:38;;;;;;;76.45;34.35;;;19.60;91.40;;;;;;5005827;28;20198;-82
2022/03/26 08:44:05;;;;;;;70.97;33.88;;;19.60;91.50;;;;;;5004158;28;20631;-81
2022/03/26 08:46:34;;;;;;;70.95;34.08;;;19.70;91.60;;;;;;5005720;28;20238;-84
2022/03/26 08:49:01;;;;;;;74.68;33.67;;;19.90;91.50;;;;;;4984085;28;20242;-80
2022/03/26 08:51:28;;;;;;;63.65;30.92;;;19.80;91.40;;;;;;4989491;28;20316;-80
2022/03/26 08:53:55;;;;;;;64.90;31.40;;;19.90;91.40;;;;;;5001460;28;20264;-79
2022/03/26 08:56:22;;;;;;;69.45;33.08;;;20.00;91.10;;;;;;5003805;28;20210;-79
2022/03/26 08:58:48;;;;;;;60.35;29.02;;;20.00;90.60;;;;;;5002550;28;20234;-80
2022/03/26 09:01:15;;;;;;;61.28;28.73;;;20.00;90.60;;;;;;5004707;28;20916;-80
2022/03/26 09:03:43;;;;;;;64.55;30.92;;;20.00;90.60;;;;;;5002262;28;20527;-80
2022/03/26 09:06:11;;;;;;;65.00;30.63;;;20.10;90.70;;;;;;4996258;28;20753;-81
2022/03/26 09:08:39;;;;;;;60.53;29.25;;;20.30;90.60;;;;;;5001634;28;20257;-82
2022/03/26 09:11:05;;;;;;;53.53;26.48;;;20.40;90.50;;;;;;4991599;28;20218;-81
2022/03/26 09:13:33;;;;;;;56.95;27.90;;;20.50;90.40;;;;;;4999366;28;20491;-80
2022/03/26 09:16:00;;;;;;;59.22;28.52;;;20.40;90.30;;;;;;5000229;28;20286;-79
2022/03/26 09:18:28;;;;;;;51.97;26.30;;;20.60;90.50;;;;;;5004516;28;20210;-80
2022/03/26 09:20:55;;;;;;;54.75;26.58;;;20.50;90.30;;;;;;4979286;28;20206;-81
2022/03/26 09:23:23;;;;;;;52.88;25.73;;;20.60;90.00;;;;;;5002481;28;20238;-80
2022/03/26 09:25:50;;;;;;;50.63;25.02;;;20.70;90.10;;;;;;5000222;28;20294;-79
2022/03/26 09:28:16;;;;;;;50.03;24.90;;;20.60;90.00;;;;;;5003068;28;20311;-79
2022/03/26 09:30:43;;;;;;;52.13;26.63;;;20.60;90.00;;;;;;5004258;28;20250;-81
2022/03/26 09:33:10;;;;;;;54.53;26.63;;;20.60;89.70;;;;;;5007104;28;20211;-81
2022/03/26 09:35:37;;;;;;;49.35;24.67;;;20.60;90.00;;;;;;4994811;28;20597;-80
2022/03/26 09:38:04;;;;;;;49.88;25.63;;;20.30;89.30;;;;;;5001092;28;20695;-81
2022/03/26 09:40:32;;;;;;;50.85;24.70;;;20.10;89.90;;;;;;5005359;28;20293;-80
2022/03/26 09:43:00;;;;;;;45.80;22.02;;;20.10;90.40;;;;;;5007947;28;20269;-80
2022/03/26 09:45:27;;;;;;;43.60;21.05;;;19.90;90.50;;;;;;5023059;28;20206;-81
2022/03/26 09:47:54;;;;;;;44.97;23.02;;;20.00;90.20;;;;;;5032806;28;20254;-80
2022/03/26 09:50:21;;;;;;;49.90;23.55;;;20.00;90.10;;;;;;5007008;28;20603;-81
2022/03/26 09:52:50;;;;;;;54.00;26.17;;;20.10;90.10;;;;;;5007842;28;20203;-80
2022/03/26 09:55:19;;;;;;;53.53;25.33;;;20.00;90.40;;;;;;5005597;28;20210;-80
2022/03/26 09:57:48;;;;;;;47.97;24.35;;;20.10;90.60;;;;;;5003781;28;20612;-80
2022/03/26 10:00:15;;;;;;;48.63;24.10;;;20.10;90.60;;;;;;5007944;28;20711;-81
2022/03/26 10:02:42;;;;;;;45.47;22.95;;;20.10;90.40;;;;;;5004647;28;20641;-83
2022/03/26 10:05:20;;;;;;;45.15;22.65;;;20.20;90.40;;;;;;5019151;28;20207;-86
2022/03/26 10:07:48;;;;;;;38.70;19.45;;;20.10;90.00;;;;;;4996623;28;20814;-85
2022/03/26 10:10:23;;;;;;;41.05;21.67;;;20.10;89.80;;;;;;4993836;28;20281;-84
2022/03/26 10:12:52;;;;;;;41.17;20.92;;;20.10;89.00;;;;;;4993052;28;20229;-86
2022/03/26 10:15:19;;;;;;;43.83;21.00;;;20.10;89.00;;;;;;5000459;28;20221;-84
2022/03/26 10:17:47;;;;;;;40.33;21.38;;;20.10;88.70;;;;;;4991026;28;20226;-80
2022/03/26 10:20:15;;;;;;;45.03;21.17;;;20.00;87.40;;;;;;4992884;28;20202;-85
2022/03/26 10:22:50;;;;;;;39.72;19.42;;;19.80;87.70;;;;;;5007164;28;20213;-83
2022/03/26 10:25:25;;;;;;;42.63;21.65;;;19.70;88.90;;;;;;5003993;28;20299;-85
2022/03/26 10:27:57;;;;;;;40.38;21.45;;;19.50;88.50;;;;;;4990155;28;20206;-85
2022/03/26 10:33:24;;;;;;;42.22;20.67;;;19.40;89.40;;;;;;5008141;28;20341;-87
2022/03/26 10:35:59;;;;;;;47.08;22.63;;;19.30;89.40;;;;;;5010101;28;20312;-86
2022/03/26 10:38:41;;;;;;;45.78;22.42;;;19.20;89.70;;;;;;4994129;28;20202;-85
2022/03/26 10:41:09;;;;;;;45.53;21.70;;;19.10;88.90;;;;;;4993900;28;20677;-86
2022/03/26 10:43:37;;;;;;;46.70;23.38;;;18.90;89.50;;;;;;4995058;28;20269;-86
2022/03/26 10:46:04;;;;;;;49.10;23.27;;;18.80;89.90;;;;;;5007585;28;20305;-86
2022/03/26 10:48:33;;;;;;;46.17;21.63;;;18.70;89.70;;;;;;5000985;28;20805;-86
2022/03/26 10:51:09;;;;;;;44.08;21.88;;;18.60;90.20;;;;;;5004934;28;20277;-85
2022/03/26 10:53:41;;;;;;;45.92;22.08;;;18.60;90.40;;;;;;4990213;28;20301;-85
2022/03/26 10:56:11;;;;;;;44.13;21.52;;;18.60;90.50;;;;;;5008580;28;20289;-86
2022/03/26 10:58:39;;;;;;;49.05;23.17;;;18.70;90.20;;;;;;4994600;28;20726;-84
2022/03/26 11:01:07;;;;;;;46.38;23.70;;;18.70;90.40;;;;;;5010983;28;20215;-83
2022/03/26 11:03:35;;;;;;;53.38;25.33;;;18.70;90.60;;;;;;5001768;28;20682;-83
2022/03/26 11:06:08;;;;;;;52.78;23.90;;;18.70;90.40;;;;;;4998812;28;20280;-84
2022/03/26 11:08:37;;;;;;;50.30;23.23;;;18.80;90.20;;;;;;4995890;28;20245;-83
2022/03/26 11:11:09;;;;;;;52.45;23.25;;;18.80;90.00;;;;;;5001516;28;20199;-85
2022/03/26 11:13:49;;;;;;;50.15;21.98;;;18.90;89.00;;;;;;5008153;28;20233;-84
2022/03/26 11:16:31;;;;;;;41.08;21.73;;;18.90;88.90;;;;;;5004829;28;20631;-85
2022/03/26 11:19:19;;;;;;;44.40;19.92;;;19.00;88.90;;;;;;5000116;28;20216;-84
2022/03/26 11:22:01;;;;;;;42.53;19.08;;;19.10;88.40;;;;;;5005224;28;20317;-85
2022/03/26 11:24:49;;;;;;;46.40;18.70;;;19.20;87.10;;;;;;5005675;28;20689;-84
2022/03/26 11:27:26;;;;;;;35.40;17.23;;;19.20;87.30;;;;;;5001784;28;20637;-84
2022/03/26 11:30:04;;;;;;;35.80;16.20;;;19.30;87.30;;;;;;5009524;28;20348;-83
2022/03/26 11:32:45;;;;;;;34.30;16.25;;;19.40;86.50;;;;;;4999792;28;20210;-85
2022/03/26 11:35:16;;;;;;;34.67;16.52;;;19.40;85.60;;;;;;4991598;28;20238;-85
2022/03/26 11:37:57;;;;;;;37.22;17.88;;;19.50;85.60;;;;;;4992121;28;20674;-86
2022/03/26 11:40:54;;;;;;;31.42;15.02;;;19.70;85.70;;;;;;5005737;28;20265;-84
2022/03/26 11:43:42;;;;;;;35.38;16.48;;;19.70;83.60;;;;;;4986095;28;20214;-85
2022/03/26 11:51:56;;;;;;;41.95;19.10;;;19.90;84.10;;;;;;5002905;28;20206;-85
2022/03/26 11:54:24;;;;;;;36.97;17.75;;;19.80;84.50;;;;;;4995849;28;20203;-86
2022/03/26 11:57:19;;;;;;;39.92;19.13;;;19.90;85.20;;;;;;5000418;28;20198;-86
2022/03/26 11:59:48;;;;;;;40.60;20.65;;;20.00;84.50;;;;;;5014737;28;20222;-85
2022/03/26 12:02:29;;;;;;;39.85;19.40;;;20.00;84.80;;;;;;4995396;28;20218;-85
2022/03/26 12:04:58;;;;;;;38.90;18.77;;;20.20;84.10;;;;;;4994983;28;20218;-85
2022/03/26 12:07:29;;;;;;;41.75;18.48;;;20.30;84.20;;;;;;4993564;28;20290;-85
2022/03/26 12:10:09;;;;;;;38.20;21.10;;;20.30;83.60;;;;;;4992928;28;20314;-85
2022/03/26 12:12:49;;;;;;;32.17;16.60;;;20.30;83.40;;;;;;5005593;28;20218;-85
2022/03/26 12:15:16;;;;;;;35.80;14.60;;;20.20;83.60;;;;;;5006131;28;20224;-85
2022/03/26 12:17:44;;;;;;;30.33;14.88;;;20.20;83.70;;;;;;5003484;28;20211;-85
2022/03/26 12:20:53;;;;;;;31.48;16.05;;;20.20;83.30;;;;;;4999964;28;20207;-85
2022/03/26 12:23:28;;;;;;;33.08;15.80;;;20.30;82.40;;;;;;5000085;28;20199;-84
2022/03/26 12:26:09;;;;;;;27.63;15.13;;;20.20;82.70;;;;;;5008667;28;20293;-85
2022/03/26 12:28:39;;;;;;;33.92;16.27;;;20.30;82.30;;;;;;5009116;28;20222;-84
2022/03/26 12:31:11;;;;;;;38.35;18.50;;;20.30;82.40;;;;;;4994564;28;20222;-84
2022/03/26 12:33:49;;;;;;;31.75;16.15;;;20.40;82.10;;;;;;4985142;28;20226;-84
2022/03/26 12:36:19;;;;;;;30.75;14.68;;;20.40;83.40;;;;;;4998803;28;20222;-83
2022/03/26 12:38:48;;;;;;;33.72;14.20;;;20.40;82.90;;;;;;4988716;28;20617;-83
2022/03/26 12:41:15;;;;;;;27.13;13.15;;;20.40;81.90;;;;;;5003709;28;20198;-84
2022/03/26 12:43:54;;;;;;;32.92;15.88;;;20.40;81.30;;;;;;4991141;28;20207;-83
2022/03/26 12:46:29;;;;;;;29.33;16.20;;;20.40;82.30;;;;;;5002494;28;20284;-83
2022/03/26 12:48:56;;;;;;;35.20;16.92;;;20.40;83.00;;;;;;4996878;28;20230;-85